Time;durP1;ratioP1;P1;durP2;ratioP2;P2;SDS_P1;SDS_P2;PMS_P1;PMS_P2;Temp;Humidity;BMP_temperature;BMP_pressure;BME280_temperature;BME280_humidity;BME280_pressure;Samples;Min_cycle;Max_cycle;Signal;HPM_P1;HPM_P2
2023/10/07 00:00:49;;;;;;;;;;;16.20;84.80;;;16.40;52.33;99535.66;5005773;28;113716;-88
2023/10/07 00:03:17;;;;;;;;;;;16.20;84.80;;;16.38;52.45;99526.81;5006559;28;124395;-88
2023/10/07 00:05:46;;;;;;;;;;;16.20;84.80;;;16.37;52.52;99524.34;5007744;28;123120;-89
2023/10/07 00:08:16;;;;;;;;;;;16.20;84.90;;;16.34;52.24;99521.06;5015123;27;114557;-88
2023/10/07 00:10:46;;;;;;;;;;;16.10;84.80;;;16.31;52.24;99527.31;5008934;28;114347;-89
2023/10/07 00:13:13;;;;;;;;;;;16.10;84.70;;;16.30;52.19;99531.25;5008457;28;126126;-88
2023/10/07 00:15:43;;;;;;;;;;;16.10;84.70;;;16.29;52.28;99529.63;5010750;28;124286;-88
2023/10/07 00:18:12;;;;;;;;;;;16.10;84.70;;;16.27;52.42;99531.91;5023304;27;114459;-89
2023/10/07 00:20:55;;;;;;;;;;;16.00;84.60;;;16.25;52.07;99525.03;5032515;27;113722;-88
2023/10/07 00:23:28;;;;;;;;;;;16.00;84.60;;;16.21;52.19;99516.53;5039828;27;124142;-88
2023/10/07 00:25:55;;;;;;;;;;;16.00;84.60;;;16.21;52.03;99522.09;5013399;27;123865;-89
2023/10/07 00:28:32;;;;;;;;;;;16.00;84.50;;;16.19;51.99;99521.59;5006530;28;113551;-89
2023/10/07 00:31:02;;;;;;;;;;;16.00;84.50;;;16.17;51.91;99528.66;5006533;28;114755;-88
2023/10/07 00:33:30;;;;;;;;;;;16.00;84.30;;;16.14;51.84;99524.56;5009244;28;124429;-90
2023/10/07 00:36:02;;;;;;;;;;;15.90;84.20;;;16.11;52.06;99528.84;5009840;28;123227;-89
2023/10/07 00:38:37;;;;;;;;;;;15.90;84.20;;;16.09;51.71;99527.53;5009038;28;114491;-89
2023/10/07 00:41:04;;;;;;;;;;;15.90;84.30;;;16.08;51.80;99520.34;5012010;28;113395;-88
2023/10/07 00:43:31;;;;;;;;;;;15.90;84.20;;;16.05;52.06;99523.78;5009185;28;124742;-88
2023/10/07 00:46:21;;;;;;;;;;;15.80;84.20;;;16.04;51.75;99527.69;5015384;28;123278;-88
2023/10/07 00:48:52;;;;;;;;;;;15.80;84.20;;;16.00;51.83;99526.75;5007791;28;114712;-90
2023/10/07 00:51:33;;;;;;;;;;;15.80;84.20;;;15.97;51.69;99521.84;5006958;28;113927;-88
2023/10/07 00:54:08;;;;;;;;;;;15.70;84.10;;;15.95;51.77;99519.38;5036134;27;124067;-88
2023/10/07 00:56:36;;;;;;;;;;;15.70;84.00;;;15.96;51.84;99517.41;5009572;28;124167;-89
2023/10/07 00:59:07;;;;;;;;;;;15.70;84.00;;;15.92;51.83;99514.47;5028027;27;114394;-88
2023/10/07 01:01:36;;;;;;;;;;;15.70;84.00;;;15.90;51.79;99511.19;4994365;28;112918;-88
2023/10/07 01:04:06;;;;;;;;;;;15.70;84.10;;;15.87;52.05;99507.09;5009537;28;124347;-89
2023/10/07 01:06:32;;;;;;;;;;;15.70;84.10;;;15.84;52.12;99507.75;5009148;28;124443;-89
2023/10/07 01:09:14;;;;;;;;;;;15.70;84.20;;;15.81;51.87;99497.25;5022480;28;114653;-88
2023/10/07 01:11:44;;;;;;;;;;;15.60;84.10;;;15.76;52.19;99497.44;5039377;27;113908;-88
2023/10/07 01:14:13;;;;;;;;;;;15.60;84.20;;;15.73;52.18;99495.31;5010657;28;124892;-88
2023/10/07 01:16:45;;;;;;;;;;;15.50;84.30;;;15.70;52.24;99490.41;5008638;28;123282;-90
2023/10/07 01:21:53;;;;;;;;;;;15.50;84.40;;;15.57;52.57;99474.66;5034963;27;114923;-89
2023/10/07 01:27:02;;;;;;;;;;;15.40;84.30;;;15.52;52.10;99481.19;5012547;28;124631;-88
2023/10/07 01:29:28;;;;;;;;;;;15.30;84.30;;;15.51;52.61;99481.53;5012594;28;113979;-88
2023/10/07 01:32:04;;;;;;;;;;;15.30;84.50;;;15.48;52.43;99473.84;5010313;28;112889;-90
2023/10/07 01:34:34;;;;;;;;;;;15.30;84.60;;;15.43;52.36;99470.06;5037324;27;124223;-89
2023/10/07 01:37:11;;;;;;;;;;;15.30;84.60;;;15.42;52.31;99468.44;5009032;28;124095;-90
2023/10/07 01:39:40;;;;;;;;;;;15.20;84.50;;;15.41;52.20;99466.78;5026217;28;113538;-90
2023/10/07 01:42:21;;;;;;;;;;;15.20;84.40;;;15.42;52.12;99462.88;5009501;28;113957;-90
2023/10/07 01:44:55;;;;;;;;;;;15.20;84.30;;;15.43;51.86;99458.94;5008002;28;124804;-90
2023/10/07 01:47:24;;;;;;;;;;;15.20;84.20;;;15.43;51.81;99460.91;5000294;28;123083;-89
2023/10/07 01:49:53;;;;;;;;;;;15.20;84.00;;;15.42;51.57;99462.88;5012124;28;114685;-88
2023/10/07 01:52:24;;;;;;;;;;;15.20;83.90;;;15.43;51.75;99460.91;5009153;28;114314;-89
2023/10/07 01:54:52;;;;;;;;;;;15.20;83.90;;;15.43;51.71;99463.69;5008403;28;124263;-89
2023/10/07 01:57:19;;;;;;;;;;;15.20;83.80;;;15.43;51.59;99460.91;4994281;28;124178;-90
2023/10/07 01:59:48;;;;;;;;;;;15.20;83.80;;;15.40;51.84;99470.72;4988513;28;113262;-89
2023/10/07 02:02:15;;;;;;;;;;;15.20;83.70;;;15.39;51.58;99476.63;5009410;28;113396;-89
2023/10/07 02:04:44;;;;;;;;;;;15.20;83.70;;;15.35;51.67;99479.25;5008702;28;123694;-90
2023/10/07 02:07:12;;;;;;;;;;;15.10;83.50;;;15.33;51.62;99469.59;5035813;27;123894;-89
2023/10/07 02:09:42;;;;;;;;;;;15.10;83.40;;;15.29;51.31;99477.78;5001035;28;115162;-89
2023/10/07 02:12:09;;;;;;;;;;;15.10;83.30;;;15.27;51.35;99477.28;5008807;28;114753;-89
2023/10/07 02:14:39;;;;;;;;;;;15.10;83.10;;;15.23;51.53;99484.63;4996017;28;124231;-90
2023/10/07 02:17:07;;;;;;;;;;;15.10;83.10;;;15.15;51.42;99475.16;5032948;27;124078;-89
2023/10/07 02:19:40;;;;;;;;;;;15.00;83.20;;;15.07;51.68;99495.47;4994337;28;114469;-89
2023/10/07 02:22:07;;;;;;;;;;;15.00;83.30;;;14.96;52.33;99488.53;5008067;28;113235;-89
2023/10/07 02:24:35;;;;;;;;;;;14.90;83.80;;;14.87;52.30;99488.53;5007548;28;124287;-89
2023/10/07 02:27:06;;;;;;;;;;;14.80;83.70;;;14.85;52.62;99488.03;5015008;27;124164;-89
2023/10/07 02:29:34;;;;;;;;;;;14.80;84.00;;;14.86;52.67;99489.69;4997264;28;114431;-90
2023/10/07 02:32:17;;;;;;;;;;;14.70;84.00;;;14.86;52.85;99492.47;5008280;28;114011;-90
2023/10/07 02:34:54;;;;;;;;;;;14.70;84.40;;;14.84;52.65;99491.97;5011125;28;122642;-90
2023/10/07 02:37:25;;;;;;;;;;;14.70;84.40;;;14.81;52.83;99489.84;5017355;28;123319;-89
2023/10/07 02:40:18;;;;;;;;;;;14.70;84.60;;;14.76;52.72;99501.09;5003948;28;113842;-90
2023/10/07 02:42:46;;;;;;;;;;;14.60;84.50;;;14.71;53.01;99506.81;5029887;27;113527;-90
2023/10/07 02:45:20;;;;;;;;;;;14.60;84.80;;;14.65;53.28;99503.38;5006980;28;123472;-90
2023/10/07 02:48:00;;;;;;;;;;;14.60;84.90;;;14.60;53.07;99502.69;5007250;28;124420;-87
2023/10/07 02:50:31;;;;;;;;;;;14.50;85.00;;;14.46;53.63;99511.94;5003055;28;113495;-88
2023/10/07 02:53:00;;;;;;;;;;;14.40;85.40;;;14.35;53.90;99505.84;5011653;28;113951;-88
2023/10/07 02:55:38;;;;;;;;;;;14.30;85.80;;;14.23;54.26;99510.34;5008113;28;124349;-87
2023/10/07 02:58:08;;;;;;;;;;;14.20;86.10;;;14.17;54.67;99517.19;5010842;28;123477;-86
2023/10/07 03:00:49;;;;;;;;;;;14.10;86.40;;;14.14;54.66;99511.13;5002212;28;115346;-85
2023/10/07 03:06:08;;;;;;;;;;;14.10;86.70;;;14.13;54.80;99517.84;5014419;28;123943;-85
2023/10/07 03:08:49;;;;;;;;;;;14.00;87.20;;;14.12;54.99;99505.06;5031067;27;122380;-89
2023/10/07 03:11:22;;;;;;;;;;;14.00;87.10;;;14.12;54.88;99509.81;5010654;28;113948;-89
2023/10/07 03:13:50;;;;;;;;;;;14.00;87.20;;;14.16;54.73;99494.16;5027288;28;113403;-86
2023/10/07 03:24:28;;;;;;;;;;;14.10;87.60;;;14.23;54.82;99502.00;5035414;27;114751;-87
2023/10/07 03:27:05;;;;;;;;;;;14.00;87.70;;;14.19;54.78;99498.25;5009728;28;123846;-88
2023/10/07 03:29:37;;;;;;;;;;;14.00;87.60;;;14.19;54.82;99503.81;5041176;27;123850;-87
2023/10/07 03:32:12;;;;;;;;;;;14.00;87.70;;;14.19;54.64;99509.38;5025157;28;113632;-87
2023/10/07 03:34:43;;;;;;;;;;;13.90;87.70;;;14.18;54.68;99502.16;5030448;27;112829;-88
2023/10/07 03:39:44;;;;;;;;;;;16.20;90.00;;;14.05;54.81;99510.28;5013407;28;124366;-88
2023/10/07 03:42:14;;;;;;;;;;;13.90;87.80;;;14.00;55.07;99517.94;5038966;27;114332;-85
2023/10/07 03:44:40;;;;;;;;;;;13.90;88.10;;;13.95;55.17;99516.09;5014903;28;113015;-87
2023/10/07 03:47:15;;;;;;;;;;;13.80;88.70;;;13.91;55.27;99526.19;5018147;28;123867;-86
2023/10/07 03:49:42;;;;;;;;;;;13.80;88.60;;;13.86;55.68;99532.72;5014827;28;122176;-86
2023/10/07 03:52:12;;;;;;;;;;;13.70;88.50;;;13.78;56.09;99538.19;5018255;28;114711;-88
2023/10/07 03:54:43;;;;;;;;;;;13.60;89.60;;;13.60;56.95;99551.94;5020503;28;114378;-87
2023/10/07 03:57:15;;;;;;;;;;;13.60;90.00;;;13.47;57.14;99558.38;5013730;28;124009;-87
2023/10/07 03:59:41;;;;;;;;;;;13.40;90.00;;;13.37;56.74;99553.84;5028321;28;122034;-86
2023/10/07 04:05:10;;;;;;;;;;;13.30;89.90;;;13.34;56.96;99554.47;5028340;28;114869;-89
2023/10/07 04:07:37;;;;;;;;;;;13.30;90.00;;;13.39;56.92;99561.88;5003084;28;124346;-87
2023/10/07 04:10:20;;;;;;;;;;;13.30;90.00;;;13.43;56.78;99558.19;5026235;28;123935;-87
2023/10/07 04:12:49;;;;;;;;;;;13.30;90.00;;;13.46;57.00;99554.78;5002994;28;114989;-87
2023/10/07 04:15:28;;;;;;;;;;;13.30;90.00;;;13.50;56.71;99552.19;5020999;28;96866;-86
2023/10/07 04:18:16;;;;;;;;;;;13.30;90.10;;;13.52;56.70;99546.31;5017135;28;124185;-88
2023/10/07 04:23:24;;;;;;;;;;;13.40;90.10;;;13.57;56.37;99555.34;5014440;28;114504;-88
2023/10/07 04:25:55;;;;;;;;;;;13.40;90.00;;;13.61;56.23;99555.53;5002535;28;114839;-86
2023/10/07 04:28:27;;;;;;;;;;;13.40;90.00;;;13.64;56.18;99541.84;5007423;28;123777;-87
2023/10/07 04:30:53;;;;;;;;;;;13.40;90.00;;;13.67;56.10;99546.78;4998697;28;123575;-88
2023/10/07 04:33:32;;;;;;;;;;;13.40;89.90;;;13.72;56.01;99550.56;5002897;28;114310;-87
2023/10/07 04:36:04;;;;;;;;;;;13.50;90.00;;;13.74;55.95;99548.28;5027743;27;114039;-88
2023/10/07 04:43:50;;;;;;;;;;;13.40;89.90;;;13.69;56.07;99538.94;4991770;28;116253;-88
2023/10/07 04:46:29;;;;;;;;;;;13.50;89.90;;;13.70;55.81;99532.25;5004732;28;114515;-87
2023/10/07 04:49:11;;;;;;;;;;;13.40;89.70;;;13.68;55.85;99540.09;5034494;27;123928;-86
2023/10/07 04:54:07;;;;;;;;;;;13.40;89.60;;;13.67;55.86;99555.13;5002198;28;112715;-88
2023/10/07 04:56:35;;;;;;;;;;;13.40;89.60;;;13.67;55.65;99557.88;5032065;27;113074;-88
2023/10/07 04:59:06;;;;;;;;;;;13.40;89.50;;;13.67;55.42;99562.59;5001809;28;123685;-88
2023/10/07 05:01:33;;;;;;;;;;;13.40;89.50;;;13.62;55.87;99555.22;5000931;28;123571;-87
2023/10/07 05:04:04;;;;;;;;;;;13.40;89.60;;;13.50;56.05;99552.19;5005464;28;114211;-86
2023/10/07 05:06:35;;;;;;;;;;;13.30;90.00;;;13.32;56.44;99550.38;5031045;27;113199;-88
2023/10/07 05:09:18;;;;;;;;;;;13.20;90.00;;;13.22;56.72;99555.00;5054752;27;123687;-87
2023/10/07 05:11:45;;;;;;;;;;;13.20;90.00;;;13.19;56.94;99547.31;5027565;28;123710;-87
2023/10/07 05:14:18;;;;;;;;;;;13.10;90.10;;;13.18;56.84;99548.41;5055902;27;114142;-87
2023/10/07 05:16:58;;;;;;;;;;;13.00;90.10;;;13.18;56.89;99530.97;5025431;28;114080;-89
2023/10/07 05:19:33;;;;;;;;;;;13.10;90.20;;;13.18;57.07;99539.28;5038394;28;124095;-86
2023/10/07 05:22:00;;;;;;;;;;;13.10;90.20;;;13.21;56.93;99533.09;5025678;28;122278;-87
2023/10/07 05:24:30;;;;;;;;;;;13.00;90.20;;;13.26;56.90;99536.63;5023620;28;114797;-87
2023/10/07 05:27:01;;;;;;;;;;;13.10;90.30;;;13.33;56.78;99543.72;5024946;28;113656;-86
2023/10/07 05:29:32;;;;;;;;;;;13.10;90.30;;;13.37;56.56;99547.47;5041599;27;122974;-88
2023/10/07 05:32:00;;;;;;;;;;;13.10;90.30;;;13.40;56.53;99555.19;5026606;28;123567;-88
2023/10/07 05:34:30;;;;;;;;;;;13.20;90.30;;;13.45;57.24;99555.06;5009399;28;115118;-87
2023/10/07 05:37:04;;;;;;;;;;;13.20;90.60;;;13.52;56.87;99554.66;5012907;28;113538;-87
2023/10/07 05:39:32;;;;;;;;;;;13.20;90.60;;;13.58;57.61;99562.53;5033235;28;124386;-87
2023/10/07 05:41:58;;;;;;;;;;;13.30;91.00;;;13.67;57.72;99559.81;5051974;27;123277;-89
2023/10/07 05:44:25;;;;;;;;;;;13.30;91.20;;;13.75;57.46;99566.59;5055157;27;113818;-89
2023/10/07 05:46:51;;;;;;;;;;;13.30;91.20;;;13.77;57.01;99567.09;5015793;28;112936;-88
2023/10/07 05:49:18;;;;;;;;;;;13.40;91.00;;;13.78;56.65;99563.19;5016978;28;124709;-87
2023/10/07 05:51:44;;;;;;;;;;;13.40;90.80;;;13.76;56.26;99562.69;5016889;28;122813;-88
2023/10/07 05:54:11;;;;;;;;;;;13.40;90.80;;;13.76;56.08;99568.25;5032281;27;113509;-87
2023/10/07 05:56:42;;;;;;;;;;;13.40;90.40;;;13.77;55.77;99565.13;5014771;28;112853;-88
2023/10/07 05:59:09;;;;;;;;;;;13.40;90.20;;;13.78;55.62;99554.84;5029673;28;123681;-87
2023/10/07 06:01:36;;;;;;;;;;;13.40;90.10;;;13.81;55.47;99557.84;5010761;28;122321;-87
2023/10/07 06:04:05;;;;;;;;;;;13.50;90.10;;;13.86;55.09;99551.31;5004655;28;113418;-87
2023/10/07 06:06:31;;;;;;;;;;;13.50;90.00;;;13.91;55.00;99551.19;5012592;28;112926;-89
2023/10/07 06:09:03;;;;;;;;;;;13.50;89.60;;;13.95;54.55;99559.72;5010867;28;122369;-87
2023/10/07 06:11:32;;;;;;;;;;;13.60;89.50;;;13.99;54.61;99561.53;5013052;28;124092;-88
2023/10/07 06:13:59;;;;;;;;;;;13.60;89.20;;;14.02;54.32;99569.22;5011701;28;114171;-87
2023/10/07 06:16:26;;;;;;;;;;;13.60;88.90;;;14.03;54.22;99562.56;5008464;28;112838;-88
2023/10/07 06:18:53;;;;;;;;;;;13.70;88.70;;;14.03;53.89;99562.56;5012677;28;123762;-88
2023/10/07 06:21:27;;;;;;;;;;;13.60;88.30;;;14.01;53.92;99570.38;5013229;28;123165;-87
2023/10/07 06:24:04;;;;;;;;;;;13.60;88.10;;;14.02;53.76;99568.41;5028091;27;115804;-88
2023/10/07 06:26:31;;;;;;;;;;;13.70;88.20;;;14.02;53.77;99572.00;5013318;28;113925;-87
2023/10/07 06:29:02;;;;;;;;;;;13.70;88.00;;;14.02;53.69;99574.78;5026848;28;125110;-89
2023/10/07 06:31:31;;;;;;;;;;;13.70;87.80;;;14.01;53.61;99562.03;5002322;28;123008;-89
2023/10/07 06:34:01;;;;;;;;;;;13.70;87.50;;;14.02;53.68;99566.44;5023710;28;113761;-88
2023/10/07 06:36:30;;;;;;;;;;;13.70;87.50;;;14.04;53.52;99564.19;5011628;28;113638;-89
2023/10/07 06:39:01;;;;;;;;;;;13.80;87.50;;;14.10;53.40;99546.25;5011578;28;124427;-89
2023/10/07 06:41:30;;;;;;;;;;;13.80;87.40;;;14.18;53.25;99553.00;5049796;27;123522;-89
2023/10/07 06:44:04;;;;;;;;;;;13.80;87.40;;;14.26;53.14;99555.00;5011502;28;112612;-90
2023/10/07 06:46:40;;;;;;;;;;;12.10;85.70;;;14.39;53.34;99556.06;5003066;28;114340;-89
2023/10/07 06:49:16;;;;;;;;;;;14.00;87.40;;;14.51;52.87;99566.59;5000421;28;123476;-89
2023/10/07 06:51:53;;;;;;;;;;;14.00;87.20;;;14.61;52.58;99573.84;5039407;27;123538;-89
2023/10/07 06:54:32;;;;;;;;;;;14.10;87.10;;;14.70;52.43;99580.28;5007622;28;114524;-89
2023/10/07 06:57:01;;;;;;;;;;;14.20;86.90;;;14.80;52.34;99591.94;5038029;27;113657;-89
2023/10/07 06:59:27;;;;;;;;;;;14.30;86.80;;;14.93;51.91;99594.94;5006938;28;123751;-89
2023/10/07 07:01:55;;;;;;;;;;;14.40;86.50;;;15.00;51.20;99604.47;5009621;28;124565;-90
2023/10/07 07:04:22;;;;;;;;;;;14.40;85.70;;;15.06;51.27;99607.09;5016216;28;114667;-89
2023/10/07 07:07:10;;;;;;;;;;;14.50;85.90;;;15.08;51.35;99605.63;5000758;28;113005;-88
2023/10/07 07:12:18;;;;;;;;;;;14.50;85.90;;;15.09;51.44;99620.34;5041221;27;124029;-91
2023/10/07 07:17:35;;;;;;;;;;;14.60;86.00;;;15.28;51.59;99626.47;5014586;28;115404;-89
2023/10/07 07:22:42;;;;;;;;;;;14.80;85.70;;;15.28;50.50;99611.72;5017798;28;124786;-90
2023/10/07 07:25:12;;;;;;;;;;;14.80;84.90;;;15.23;51.19;99598.78;5036290;27;115259;-89
2023/10/07 07:27:45;;;;;;;;;;;14.80;84.90;;;15.25;50.96;99602.06;5028585;27;114336;-89
2023/10/07 07:30:19;;;;;;;;;;;14.80;84.70;;;15.32;50.99;99613.56;5012440;28;124139;-90
2023/10/07 07:32:55;;;;;;;;;;;14.90;84.70;;;15.36;50.75;99614.53;5011388;28;123962;-90
2023/10/07 07:35:41;;;;;;;;;;;15.00;84.60;;;15.44;50.56;99604.56;5035315;27;114312;-90
2023/10/07 07:41:54;;;;;;;;;;;15.10;84.50;;;15.63;49.87;99601.47;5003462;28;124285;-89
2023/10/07 07:44:02;;;;;;;;;;;15.20;84.40;;;15.75;50.21;99598.91;5033295;27;123535;-90
2023/10/07 07:46:29;;;;;;;;;;;15.30;84.20;;;15.88;50.17;99597.91;5024687;27;114548;-89
2023/10/07 07:48:56;;;;;;;;;;;15.40;84.20;;;16.01;49.82;99601.69;5009623;28;113037;-90
2023/10/07 07:51:25;;;;;;;;;;;15.50;84.10;;;16.14;49.69;99605.41;5009027;28;124841;-89
2023/10/07 07:53:52;;;;;;;;;;;15.60;83.90;;;16.21;49.12;99605.75;5012577;28;123590;-89
2023/10/07 07:56:22;;;;;;;;;;;15.60;83.20;;;16.27;48.88;99595.25;5028507;28;114449;-88
2023/10/07 07:58:52;;;;;;;;;;;15.70;83.00;;;16.32;49.16;99595.88;5011031;28;113765;-89
2023/10/07 08:01:22;;;;;;;;;;;15.70;83.20;;;16.44;49.00;99588.78;5010460;28;124249;-89
2023/10/07 08:03:55;;;;;;;;;;;15.80;83.50;;;16.51;48.63;99597.47;5013210;27;124022;-89
2023/10/07 08:06:25;;;;;;;;;;;15.90;82.60;;;16.55;48.47;99599.28;5016781;28;114954;-90
2023/10/07 08:08:54;;;;;;;;;;;15.90;82.50;;;16.63;48.31;99597.63;5010110;28;114593;-89
2023/10/07 08:11:21;;;;;;;;;;;16.00;82.40;;;16.74;48.42;99593.31;5007500;27;124176;-89
2023/10/07 08:13:53;;;;;;;;;;;16.10;82.40;;;16.87;48.15;99594.28;5031590;27;122879;-88
2023/10/07 08:16:19;;;;;;;;;;;16.30;82.20;;;16.95;47.78;99601.78;5016671;28;114330;-89
2023/10/07 08:18:48;;;;;;;;;;;16.40;81.80;;;17.03;47.76;99602.88;5005415;28;113769;-89
2023/10/07 08:21:16;;;;;;;;;;;16.40;81.60;;;17.08;47.45;99605.50;5006075;28;124727;-87
2023/10/07 08:23:46;;;;;;;;;;;16.50;81.20;;;17.16;47.38;99601.84;5018419;28;124110;-88
2023/10/07 08:26:20;;;;;;;;;;;16.60;81.10;;;17.23;47.12;99598.53;5023255;27;114636;-87
2023/10/07 08:29:19;;;;;;;;;;;16.70;81.00;;;17.28;46.93;99591.94;5003662;28;113990;-88
2023/10/07 08:31:39;;;;;;;;;;;16.80;80.50;;;17.35;47.13;99589.41;5026966;27;124536;-89
2023/10/07 08:36:36;;;;;;;;;;;16.90;80.20;;;17.49;47.06;99601.16;5000643;28;115411;-87
2023/10/07 08:39:09;;;;;;;;;;;17.00;80.30;;;17.58;46.67;99599.13;5014105;28;113837;-87
2023/10/07 08:41:40;;;;;;;;;;;17.00;79.90;;;17.63;46.64;99598.09;5045865;27;123712;-87
2023/10/07 08:44:13;;;;;;;;;;;17.10;79.90;;;17.68;46.56;99589.53;5017354;28;124312;-87
2023/10/07 08:46:49;;;;;;;;;;;17.10;79.80;;;17.72;46.58;99584.06;5020540;28;113933;-87
2023/10/07 08:49:24;;;;;;;;;;;17.20;79.70;;;17.74;46.50;99590.94;5042703;27;113531;-85
2023/10/07 08:51:52;;;;;;;;;;;17.20;79.60;;;17.80;46.58;99588.78;5040295;27;123556;-87
2023/10/07 08:54:26;;;;;;;;;;;17.30;79.70;;;17.83;46.45;99585.31;5008794;28;124080;-87
2023/10/07 08:57:02;;;;;;;;;;;17.30;79.40;;;17.83;46.30;99596.50;5012386;28;115496;-87
2023/10/07 08:59:31;;;;;;;;;;;17.30;79.30;;;17.85;46.58;99594.19;5022570;27;115394;-86
2023/10/07 09:01:59;;;;;;;;;;;17.40;79.40;;;17.89;46.45;99578.34;5012501;28;124296;-88
2023/10/07 09:04:33;;;;;;;;;;;17.40;79.40;;;17.95;46.46;99582.59;5010889;28;124121;-87
2023/10/07 09:07:00;;;;;;;;;;;17.50;79.30;;;17.99;46.38;99580.72;5017505;28;114460;-85
2023/10/07 09:09:54;;;;;;;;;;;17.60;79.30;;;18.05;46.28;99576.56;5027650;28;113970;-88
2023/10/07 09:12:46;;;;;;;;;;;17.60;79.20;;;18.09;46.25;99566.31;5039715;27;124169;-87
2023/10/07 09:15:21;;;;;;;;;;;17.60;79.00;;;18.16;46.27;99576.13;5027099;27;123680;-87
2023/10/07 09:17:48;;;;;;;;;;;17.60;78.80;;;18.21;46.06;99571.13;5013609;27;114524;-86
2023/10/07 09:20:29;;;;;;;;;;;17.80;78.70;;;18.26;46.23;99570.09;5009310;28;114103;-86
2023/10/07 09:23:15;;;;;;;;;;;17.80;78.80;;;18.32;46.04;99568.72;5001706;28;124800;-88
2023/10/07 09:25:46;;;;;;;;;;;17.90;78.70;;;18.37;45.83;99579.69;4984733;28;123599;-86
2023/10/07 09:28:13;;;;;;;;;;;17.90;78.40;;;18.41;45.86;99577.84;5005213;28;114480;-85
2023/10/07 09:33:13;;;;;;;;;;;18.00;78.20;;;18.46;45.66;99580.44;5007021;28;124573;-86
2023/10/07 09:35:47;;;;;;;;;;;18.10;78.30;;;18.53;45.85;99586.25;5007699;28;124718;-85
2023/10/07 09:38:33;;;;;;;;;;;18.10;78.40;;;18.58;45.59;99584.41;5007040;28;114664;-85
2023/10/07 09:41:12;;;;;;;;;;;18.10;78.10;;;18.63;45.53;99606.59;5008719;28;113061;-85
2023/10/07 09:43:51;;;;;;;;;;;18.20;78.00;;;18.64;45.48;99603.41;5007259;28;124308;-87
2023/10/07 09:46:39;;;;;;;;;;;18.20;77.80;;;18.66;45.43;99598.31;5007912;28;124015;-86
2023/10/07 09:49:06;;;;;;;;;;;18.20;77.70;;;18.72;45.38;99590.50;4996398;28;115665;-86
2023/10/07 09:51:44;;;;;;;;;;;18.30;77.70;;;18.76;45.47;99595.09;5013444;27;114078;-86
2023/10/07 09:54:49;;;;;;;;;;;18.40;77.90;;;18.87;45.42;99595.44;5011642;28;124489;-86
2023/10/07 09:57:55;;;;;;;;;;;18.40;77.80;;;18.95;45.11;99588.91;5039830;27;124779;-85
2023/10/07 10:01:03;;;;;;;;;;;18.50;77.70;;;19.02;44.90;99601.50;4991631;28;113393;-85
2023/10/07 10:04:06;;;;;;;;;;;18.50;77.30;;;19.05;44.96;99604.47;5038994;27;113685;-84
2023/10/07 10:06:57;;;;;;;;;;;18.60;77.10;;;19.13;44.56;99605.50;5005415;28;124363;-86
2023/10/07 10:09:27;;;;;;;;;;;18.60;77.00;;;19.19;44.79;99609.72;5005161;28;124219;-85
2023/10/07 10:12:16;;;;;;;;;;;18.70;77.10;;;19.27;44.68;99605.97;5013612;28;114447;-84
2023/10/07 10:14:56;;;;;;;;;;;18.80;77.00;;;19.28;44.42;99610.38;5025421;27;113736;-84
2023/10/07 10:17:48;;;;;;;;;;;18.80;76.20;;;19.31;44.39;99598.47;5000121;28;124606;-82
2023/10/07 10:20:18;;;;;;;;;;;18.90;76.50;;;19.39;44.40;99605.94;5009983;28;122377;-85
2023/10/07 10:23:00;;;;;;;;;;;18.90;76.50;;;19.46;44.17;99599.75;5027320;28;114256;-85
2023/10/07 10:28:08;;;;;;;;;;;19.00;75.90;;;19.61;44.03;99590.63;5023464;28;124621;-85
2023/10/07 10:30:56;;;;;;;;;;;19.10;75.90;;;19.70;43.78;99593.31;5007301;28;124233;-85
2023/10/07 10:33:25;;;;;;;;;;;19.20;75.50;;;19.81;43.54;99590.84;5008696;28;114041;-85
2023/10/07 10:35:52;;;;;;;;;;;19.10;75.30;;;19.91;43.33;99592.31;5010516;28;113586;-84
2023/10/07 10:38:19;;;;;;;;;;;19.40;75.00;;;20.00;43.23;99595.81;5029282;27;124567;-84
2023/10/07 10:40:45;;;;;;;;;;;19.50;74.70;;;20.08;42.68;99592.84;5055151;27;124204;-85
2023/10/07 10:43:23;;;;;;;;;;;19.60;74.20;;;20.17;41.58;99589.06;5018791;28;115939;-84
2023/10/07 10:46:11;;;;;;;;;;;19.70;73.00;;;20.25;40.75;99585.28;5044001;27;113394;-84
2023/10/07 10:48:40;;;;;;;;;;;19.80;71.20;;;20.36;39.70;99585.56;5039714;27;124083;-84
2023/10/07 10:51:09;;;;;;;;;;;19.80;69.90;;;20.44;39.47;99578.97;5009345;28;122908;-84
2023/10/07 10:53:41;;;;;;;;;;;19.90;69.30;;;20.49;38.23;99579.53;5017090;28;114580;-84
2023/10/07 10:56:08;;;;;;;;;;;20.00;66.60;;;20.59;38.34;99583.03;5008198;28;113381;-86
2023/10/07 10:58:36;;;;;;;;;;;20.10;66.70;;;20.67;38.22;99574.44;5016398;27;124644;-86
2023/10/07 11:01:08;;;;;;;;;;;20.20;66.10;;;20.74;37.78;99566.19;5020166;28;122650;-84
2023/10/07 11:03:51;;;;;;;;;;;20.20;65.40;;;20.80;37.26;99572.34;5048452;27;114749;-86
2023/10/07 11:06:19;;;;;;;;;;;20.30;64.60;;;20.85;37.09;99557.22;5033744;27;112248;-82
2023/10/07 11:08:46;;;;;;;;;;;20.30;63.90;;;20.89;36.70;99567.34;5011749;28;124696;-84
2023/10/07 11:11:12;;;;;;;;;;;20.40;63.10;;;20.92;36.58;99557.38;5007547;28;124023;-83
2023/10/07 11:13:44;;;;;;;;;;;20.40;62.80;;;20.95;36.11;99551.88;5041799;27;113453;-83
2023/10/07 11:16:11;;;;;;;;;;;20.50;62.50;;;21.01;36.29;99549.59;5025468;27;113751;-85
2023/10/07 11:18:38;;;;;;;;;;;20.60;62.90;;;21.08;35.92;99558.19;5015538;28;124196;-84
2023/10/07 11:21:11;;;;;;;;;;;20.60;62.10;;;21.13;35.76;99557.91;5043845;27;123323;-84
2023/10/07 11:23:49;;;;;;;;;;;20.60;61.60;;;21.17;36.07;99558.81;5018083;28;114407;-84
2023/10/07 11:26:17;;;;;;;;;;;20.70;61.80;;;21.24;35.98;99548.94;5040161;27;113072;-86
2023/10/07 11:28:43;;;;;;;;;;;20.80;61.50;;;21.29;35.88;99546.63;5044506;27;126036;-83
2023/10/07 11:31:10;;;;;;;;;;;20.80;61.20;;;21.34;35.49;99540.75;5052466;27;124510;-84
2023/10/07 11:33:37;;;;;;;;;;;20.90;60.90;;;21.37;35.29;99542.00;5012625;28;115370;-84
2023/10/07 11:36:03;;;;;;;;;;;20.90;60.50;;;21.38;35.33;99536.03;5016689;28;114868;-85
2023/10/07 11:38:34;;;;;;;;;;;21.00;60.00;;;21.40;35.20;99544.09;5011216;28;123568;-83
2023/10/07 11:41:00;;;;;;;;;;;21.00;59.90;;;21.40;34.91;99541.28;5008960;28;124102;-83
2023/10/07 11:43:29;;;;;;;;;;;21.00;59.60;;;21.41;35.30;99528.84;5001827;28;114593;-81
2023/10/07 11:45:55;;;;;;;;;;;21.00;59.80;;;21.45;35.20;99535.38;4986559;28;114140;-84
2023/10/07 11:48:24;;;;;;;;;;;21.10;59.70;;;21.46;35.23;99531.38;5009274;28;124303;-84
2023/10/07 11:50:50;;;;;;;;;;;21.10;59.50;;;21.47;35.22;99535.84;5009442;28;122812;-84
2023/10/07 11:53:19;;;;;;;;;;;21.10;59.40;;;21.49;35.07;99532.66;4958996;28;114347;-85
2023/10/07 11:55:47;;;;;;;;;;;21.20;59.60;;;21.53;35.21;99536.38;4992736;28;114059;-84
2023/10/07 11:58:15;;;;;;;;;;;21.20;59.60;;;21.55;35.19;99534.00;4981373;28;123928;-85
2023/10/07 12:00:42;;;;;;;;;;;21.20;59.10;;;21.57;35.15;99532.47;4983171;28;123446;-83
2023/10/07 12:03:08;;;;;;;;;;;21.20;59.80;;;21.61;34.73;99538.97;4964092;28;113451;-82
2023/10/07 12:05:38;;;;;;;;;;;21.20;58.90;;;21.62;35.00;99534.13;5009613;27;113544;-84
2023/10/07 12:08:04;;;;;;;;;;;21.20;58.80;;;21.62;35.26;99534.94;5013546;28;124402;-83
2023/10/07 12:10:36;;;;;;;;;;;21.30;58.90;;;21.61;35.22;99538.97;5021116;27;124519;-83
2023/10/07 12:13:11;;;;;;;;;;;21.30;58.70;;;21.61;35.20;99544.59;5014331;28;114479;-85
2023/10/07 12:15:42;;;;;;;;;;;21.30;58.80;;;21.64;34.69;99551.47;5046691;27;113940;-83
2023/10/07 12:18:16;;;;;;;;;;;21.30;58.60;;;21.64;34.89;99556.28;5029663;27;124857;-84
2023/10/07 12:20:42;;;;;;;;;;;21.30;58.80;;;21.62;35.20;99549.00;5015114;28;123341;-82
2023/10/07 12:23:12;;;;;;;;;;;21.30;59.20;;;21.64;35.67;99548.66;5044297;27;115265;-83